Time;durP1;ratioP1;P1;durP2;ratioP2;P2;SDS_P1;SDS_P2;PMS_P1;PMS_P2;Temp;Humidity;BMP_temperature;BMP_pressure;BME280_temperature;BME280_humidity;BME280_pressure;Samples;Min_cycle;Max_cycle;Signal;HPM_P1;HPM_P2
2023/06/26 00:00:26;;;;;;;7.88;6.00;;;;;;;16.61;100.00;98417.94;2598739;28;20053;-92
2023/06/26 00:02:01;;;;;;;8.88;6.10;;;;;;;16.46;100.00;98414.34;2595349;28;20085;-92
2023/06/26 00:03:17;;;;;;;8.18;6.13;;;;;;;16.47;100.00;98414.25;2597706;28;20049;-93
2023/06/26 00:04:32;;;;;;;9.27;6.75;;;;;;;16.63;100.00;98413.47;2598550;28;20641;-92
2023/06/26 00:05:50;;;;;;;7.07;5.82;;;;;;;16.85;100.00;98413.16;2601210;28;20041;-92
2023/06/26 00:07:06;;;;;;;8.90;5.53;;;;;;;16.86;100.00;98416.63;2604287;28;20563;-92
2023/06/26 00:08:21;;;;;;;8.77;6.28;;;;;;;16.82;100.00;98409.81;2604123;28;20069;-92
2023/06/26 00:09:37;;;;;;;7.88;6.15;;;;;;;16.85;100.00;98404.34;2603864;28;20412;-92
2023/06/26 00:10:53;;;;;;;7.03;5.80;;;;;;;16.53;100.00;98410.44;2603687;28;20603;-92
2023/06/26 00:12:08;;;;;;;9.50;6.07;;;;;;;16.63;100.00;98413.47;2603943;28;20049;-92
2023/06/26 00:13:24;;;;;;;8.13;6.18;;;;;;;16.60;100.00;98411.81;2603985;28;20072;-92
2023/06/26 00:14:40;;;;;;;9.57;6.05;;;;;;;16.63;100.00;98416.09;2603930;28;20215;-92
2023/06/26 00:15:56;;;;;;;9.40;6.28;;;;;;;16.48;100.00;98413.34;2604285;28;20045;-92
2023/06/26 00:17:11;;;;;;;8.13;6.57;;;;;;;16.42;100.00;98416.28;2604062;28;20071;-92
2023/06/26 00:18:27;;;;;;;9.13;6.22;;;;;;;16.32;100.00;98412.41;2604101;28;20041;-93
2023/06/26 00:19:42;;;;;;;8.77;6.13;;;;;;;16.21;100.00;98421.75;2604144;28;20049;-93
2023/06/26 00:20:58;;;;;;;8.02;6.15;;;;;;;16.19;100.00;98417.47;2604377;28;20041;-93
2023/06/26 00:22:14;;;;;;;8.82;6.85;;;;;;;16.28;100.00;98413.50;2603461;28;20041;-94
2023/06/26 00:23:32;;;;;;;8.10;6.05;;;;;;;16.32;100.00;98413.28;2596685;28;20453;-93
2023/06/26 00:24:47;;;;;;;8.88;6.10;;;;;;;16.37;100.00;98415.69;2603511;28;20438;-93
2023/06/26 00:26:04;;;;;;;7.90;6.30;;;;;;;16.36;100.00;98412.16;2604099;28;20056;-93
2023/06/26 00:27:20;;;;;;;7.03;5.95;;;;;;;16.43;100.00;98418.00;2603871;28;20048;-93
2023/06/26 00:28:35;;;;;;;8.02;6.13;;;;;;;16.43;100.00;98420.63;2603216;28;20124;-93
2023/06/26 00:29:52;;;;;;;6.97;5.72;;;;;;;16.43;100.00;98419.78;2603686;28;20045;-93
2023/06/26 00:31:08;;;;;;;8.23;6.00;;;;;;;16.40;100.00;98418.16;2603219;28;20111;-93
2023/06/26 00:32:23;;;;;;;7.30;5.65;;;;;;;16.39;100.00;98424.38;2596811;28;20049;-92
2023/06/26 00:33:39;;;;;;;8.80;5.95;;;;;;;16.36;100.00;98421.91;2603540;28;20065;-93
2023/06/26 00:34:54;;;;;;;6.60;5.90;;;;;;;16.45;100.00;98418.75;2603691;28;20065;-92
2023/06/26 00:36:10;;;;;;;6.65;5.65;;;;;;;16.40;100.00;98419.94;2604003;28;20045;-92
2023/06/26 00:37:26;;;;;;;7.25;6.13;;;;;;;16.44;100.00;98417.06;2604229;28;20505;-93
2023/06/26 00:38:41;;;;;;;8.95;5.90;;;;;;;16.40;100.00;98420.81;2603755;28;20068;-93
2023/06/26 00:39:57;;;;;;;7.88;6.00;;;;;;;16.24;100.00;98421.59;2603699;28;20497;-92
2023/06/26 00:41:12;;;;;;;8.20;6.10;;;;;;;16.24;100.00;98418.09;2603916;28;20045;-92
2023/06/26 00:42:28;;;;;;;7.05;5.68;;;;;;;16.14;100.00;98417.72;2603638;28;20045;-92
2023/06/26 00:43:43;;;;;;;7.78;6.10;;;;;;;16.19;100.00;98426.25;2603959;28;20046;-93
2023/06/26 00:44:59;;;;;;;8.02;5.78;;;;;;;16.03;100.00;98420.91;2603706;28;20053;-93
2023/06/26 00:46:15;;;;;;;7.45;5.70;;;;;;;15.98;100.00;98420.28;2603825;28;20049;-92
2023/06/26 00:47:31;;;;;;;6.85;5.57;;;;;;;16.00;100.00;98429.00;2603697;28;20048;-92
2023/06/26 00:48:48;;;;;;;6.25;5.55;;;;;;;15.94;100.00;98416.97;2603108;28;20099;-93
2023/06/26 00:50:04;;;;;;;6.90;5.75;;;;;;;15.98;100.00;98424.72;2603793;28;20528;-93
2023/06/26 00:51:20;;;;;;;7.95;6.07;;;;;;;16.02;100.00;98419.22;2603809;28;20052;-92
2023/06/26 00:52:36;;;;;;;8.30;6.40;;;;;;;15.99;100.00;98421.16;2603886;28;20049;-93
2023/06/26 00:53:52;;;;;;;7.57;5.78;;;;;;;16.04;100.00;98413.84;2603787;28;20069;-92
2023/06/26 00:55:09;;;;;;;7.60;5.90;;;;;;;15.93;100.00;98417.88;2603658;28;20064;-93
2023/06/26 00:56:24;;;;;;;8.35;6.43;;;;;;;15.95;100.00;98418.66;2603432;28;20095;-92
2023/06/26 00:57:40;;;;;;;7.55;6.00;;;;;;;15.97;100.00;98413.28;2603911;28;20144;-93
2023/06/26 00:58:56;;;;;;;8.07;6.18;;;;;;;16.10;100.00;98416.19;2603775;28;20046;-93
2023/06/26 01:00:12;;;;;;;11.13;6.82;;;;;;;16.41;100.00;98422.50;2603808;28;20057;-92
2023/06/26 01:01:28;;;;;;;9.20;6.82;;;;;;;16.47;100.00;98416.88;2603754;28;20049;-92
2023/06/26 01:02:44;;;;;;;9.38;6.45;;;;;;;16.44;100.00;98409.13;2604053;28;20045;-93
2023/06/26 01:03:59;;;;;;;8.70;6.78;;;;;;;16.54;100.00;98420.06;2602797;28;20049;-93
2023/06/26 01:05:20;;;;;;;6.97;5.78;;;;;;;16.60;100.00;98416.25;2603817;28;20053;-93
2023/06/26 01:06:36;;;;;;;10.10;6.32;;;;;;;16.62;100.00;98417.00;2603780;28;20112;-93
2023/06/26 01:07:52;;;;;;;7.07;6.13;;;;;;;16.67;100.00;98421.13;2603671;28;20045;-93
2023/06/26 01:09:07;;;;;;;8.63;6.55;;;;;;;16.72;100.00;98418.22;2603611;28;20053;-93
2023/06/26 01:10:23;;;;;;;7.80;6.57;;;;;;;16.74;100.00;98418.16;2603911;28;20107;-93
2023/06/26 01:11:39;;;;;;;8.32;6.57;;;;;;;16.76;100.00;98416.28;2603552;28;20042;-93
2023/06/26 01:12:55;;;;;;;11.25;6.78;;;;;;;16.75;100.00;98415.41;2603793;28;20385;-92
2023/06/26 01:14:11;;;;;;;8.45;6.60;;;;;;;16.73;100.00;98413.81;2603500;28;20125;-92
2023/06/26 01:15:27;;;;;;;10.23;6.32;;;;;;;16.71;100.00;98416.53;2603614;28;20472;-92
2023/06/26 01:16:47;;;;;;;8.90;6.13;;;;;;;16.69;100.00;98418.41;2603650;28;20099;-93
2023/06/26 01:18:04;;;;;;;10.40;6.78;;;;;;;16.66;100.00;98410.63;2603445;28;20092;-92
2023/06/26 01:19:28;;;;;;;8.68;6.07;;;;;;;16.56;100.00;98409.41;2603175;28;20045;-92
2023/06/26 01:20:44;;;;;;;9.25;6.07;;;;;;;16.41;100.00;98409.28;2603628;28;20063;-93
2023/06/26 01:22:20;;;;;;;8.00;6.20;;;;;;;16.40;100.00;98415.50;2603519;28;20057;-92
2023/06/26 01:24:05;;;;;;;8.45;6.60;;;;;;;16.32;100.00;98407.13;2603397;28;20128;-92
2023/06/26 01:25:20;;;;;;;8.20;6.28;;;;;;;16.45;100.00;98412.63;2602904;28;20038;-93
2023/06/26 01:26:38;;;;;;;8.15;6.22;;;;;;;16.51;100.00;98407.00;2602570;28;20147;-94
2023/06/26 01:27:55;;;;;;;9.00;6.45;;;;;;;16.38;100.00;98409.47;2602944;28;20045;-93
2023/06/26 01:29:13;;;;;;;7.13;5.75;;;;;;;16.19;100.00;98410.41;2603315;28;20077;-92
2023/06/26 01:30:29;;;;;;;9.07;6.28;;;;;;;16.06;100.00;98411.97;2603487;28;20130;-92
2023/06/26 01:31:48;;;;;;;7.85;6.00;;;;;;;16.04;100.00;98412.06;2603649;28;20065;-93
2023/06/26 01:33:04;;;;;;;7.15;6.18;;;;;;;16.26;100.00;98405.66;2603376;28;20558;-92
2023/06/26 01:34:20;;;;;;;8.18;6.07;;;;;;;16.45;100.00;98408.19;2602908;28;20050;-93
2023/06/26 01:35:36;;;;;;;7.93;6.25;;;;;;;16.31;100.00;98410.69;2603463;28;20041;-93
2023/06/26 01:36:51;;;;;;;8.23;6.10;;;;;;;16.26;100.00;98408.28;2603662;28;20374;-92
2023/06/26 01:38:18;;;;;;;8.32;6.25;;;;;;;16.04;100.00;98405.91;2603285;28;20550;-93
2023/06/26 01:39:33;;;;;;;9.38;6.20;;;;;;;16.05;100.00;98400.56;2603436;28;20053;-93
2023/06/26 01:40:50;;;;;;;10.13;6.38;;;;;;;16.01;100.00;98398.16;2603297;28;20115;-93
2023/06/26 01:42:06;;;;;;;8.50;6.43;;;;;;;16.08;100.00;98395.13;2603464;28;20483;-93
2023/06/26 01:43:34;;;;;;;7.32;6.15;;;;;;;16.00;100.00;98396.44;2603323;28;20072;-93
2023/06/26 01:44:52;;;;;;;9.52;6.38;;;;;;;15.97;100.00;98393.97;2603291;28;20045;-93
2023/06/26 01:46:47;;;;;;;8.10;6.20;;;;;;;15.91;100.00;98398.59;2603074;28;20432;-93
2023/06/26 01:48:06;;;;;;;8.15;6.30;;;;;;;15.78;100.00;98382.50;2602630;28;20050;-93
2023/06/26 01:49:48;;;;;;;9.27;6.85;;;;;;;15.77;100.00;98390.50;2603431;28;20382;-93
2023/06/26 01:51:07;;;;;;;9.15;6.30;;;;;;;15.69;100.00;98388.25;2603330;28;20080;-93
2023/06/26 01:52:32;;;;;;;8.88;6.45;;;;;;;15.74;100.00;98383.59;2603249;28;20049;-94
2023/06/26 01:53:53;;;;;;;10.20;7.13;;;;;;;15.63;100.00;98378.84;2603139;28;20404;-93
2023/06/26 01:55:19;;;;;;;9.10;6.85;;;;;;;15.65;100.00;98379.66;2603437;28;20320;-93
2023/06/26 01:56:38;;;;;;;9.57;6.60;;;;;;;15.58;100.00;98382.66;2603104;28;20494;-93
2023/06/26 01:57:57;;;;;;;8.73;6.70;;;;;;;15.71;100.00;98381.09;2603417;28;20476;-93
2023/06/26 01:59:16;;;;;;;8.25;6.57;;;;;;;15.79;100.00;98378.94;2602524;28;20045;-94
2023/06/26 02:00:33;;;;;;;13.13;6.78;;;;;;;15.90;100.00;98380.22;2602851;28;20128;-94
2023/06/26 02:01:48;;;;;;;9.60;7.38;;;;;;;15.86;100.00;98382.13;2602635;28;20535;-94
2023/06/26 02:03:05;;;;;;;9.45;6.72;;;;;;;15.90;100.00;98377.59;2602700;28;20045;-94
2023/06/26 02:04:21;;;;;;;9.68;6.80;;;;;;;15.78;100.00;98379.00;2603175;28;20045;-94
2023/06/26 02:05:36;;;;;;;7.70;6.15;;;;;;;15.81;100.00;98384.16;2602958;28;20116;-93
2023/06/26 02:06:52;;;;;;;8.25;6.70;;;;;;;15.76;100.00;98378.22;2602791;28;20053;-93
2023/06/26 02:08:08;;;;;;;9.07;6.80;;;;;;;15.70;100.00;98379.41;2603127;28;20049;-93
2023/06/26 02:09:24;;;;;;;9.35;6.93;;;;;;;15.72;100.00;98388.13;2603285;28;20052;-92
2023/06/26 02:10:39;;;;;;;9.00;6.95;;;;;;;15.74;100.00;98380.09;2602926;28;20049;-93
2023/06/26 02:11:55;;;;;;;9.27;7.35;;;;;;;15.65;100.00;98381.41;2602970;28;20115;-93
2023/06/26 02:13:10;;;;;;;9.77;7.22;;;;;;;15.77;100.00;98379.94;2603004;28;20041;-93
2023/06/26 02:14:26;;;;;;;8.85;6.88;;;;;;;15.75;100.00;98379.16;2603027;28;20057;-93
2023/06/26 02:15:41;;;;;;;9.07;6.75;;;;;;;15.67;100.00;98379.56;2603198;28;20401;-93
2023/06/26 02:17:00;;;;;;;9.48;6.90;;;;;;;15.63;100.00;98384.13;2602219;28;20104;-93
2023/06/26 02:18:15;;;;;;;8.85;6.70;;;;;;;15.70;100.00;98378.56;2602309;28;20049;-93
2023/06/26 02:19:31;;;;;;;8.43;6.88;;;;;;;15.69;100.00;98382.97;2602382;28;20049;-93
2023/06/26 02:20:46;;;;;;;8.30;6.25;;;;;;;15.68;100.00;98378.63;2602900;28;20054;-93
2023/06/26 02:22:02;;;;;;;8.48;6.68;;;;;;;15.68;100.00;98376.84;2602857;28;20053;-92
2023/06/26 02:23:17;;;;;;;8.90;6.93;;;;;;;15.65;100.00;98381.41;2602719;28;20041;-93
2023/06/26 02:24:34;;;;;;;7.78;5.97;;;;;;;15.52;100.00;98375.91;2602766;28;20080;-92
2023/06/26 02:25:49;;;;;;;9.85;7.05;;;;;;;15.50;100.00;98377.75;2602753;28;20046;-93
2023/06/26 02:27:05;;;;;;;8.48;6.85;;;;;;;15.45;100.00;98372.72;2602805;28;20100;-93
2023/06/26 02:28:20;;;;;;;9.05;6.65;;;;;;;15.45;100.00;98379.75;2602745;28;20056;-93
2023/06/26 02:29:36;;;;;;;7.10;5.78;;;;;;;15.46;100.00;98378.84;2602842;28;20045;-93
2023/06/26 02:30:51;;;;;;;9.85;5.93;;;;;;;15.37;100.00;98377.50;2603017;28;20121;-94
2023/06/26 02:32:08;;;;;;;7.82;5.80;;;;;;;15.31;100.00;98378.66;2602865;28;20619;-93
2023/06/26 02:33:24;;;;;;;8.45;5.80;;;;;;;15.24;100.00;98382.53;2603013;28;20454;-93
2023/06/26 02:34:39;;;;;;;10.00;6.70;;;;;;;15.13;100.00;98380.38;2602810;28;20057;-93
2023/06/26 02:35:55;;;;;;;7.72;6.32;;;;;;;15.13;100.00;98379.53;2602797;28;20404;-93
2023/06/26 02:37:10;;;;;;;9.00;7.10;;;;;;;15.39;100.00;98384.41;2602603;28;20091;-93
2023/06/26 02:38:26;;;;;;;8.60;6.22;;;;;;;15.41;100.00;98383.50;2602655;28;20099;-93
2023/06/26 02:39:41;;;;;;;9.35;6.47;;;;;;;15.36;100.00;98381.91;2602748;28;20052;-93
2023/06/26 02:40:57;;;;;;;8.57;6.70;;;;;;;15.34;100.00;98377.66;2602784;28;20041;-93
2023/06/26 02:42:13;;;;;;;8.57;6.38;;;;;;;15.27;100.00;98387.66;2602167;28;20045;-93
2023/06/26 02:43:28;;;;;;;9.18;6.80;;;;;;;15.23;100.00;98389.56;2602407;28;20045;-93
2023/06/26 02:44:44;;;;;;;7.47;6.00;;;;;;;15.24;100.00;98387.81;2603009;28;20050;-93
2023/06/26 02:45:59;;;;;;;7.88;6.65;;;;;;;15.24;100.00;98385.16;2603356;28;20103;-93
2023/06/26 02:47:15;;;;;;;9.38;6.75;;;;;;;15.22;100.00;98387.88;2605340;28;20057;-93
2023/06/26 02:48:30;;;;;;;7.95;6.53;;;;;;;15.20;100.00;98386.22;2605153;28;20050;-93
2023/06/26 02:49:46;;;;;;;7.47;6.28;;;;;;;15.13;100.00;98387.47;2605153;28;20073;-93
2023/06/26 02:51:01;;;;;;;7.85;6.55;;;;;;;15.14;100.00;98386.53;2604939;28;20052;-93
2023/06/26 02:52:18;;;;;;;8.20;6.50;;;;;;;15.31;100.00;98386.56;2605045;28;20076;-92
2023/06/26 02:53:34;;;;;;;7.47;5.93;;;;;;;15.41;100.00;98388.75;2604709;28;20049;-93
2023/06/26 02:54:49;;;;;;;7.57;5.70;;;;;;;15.46;100.00;98387.63;2604181;28;20046;-93
2023/06/26 02:56:05;;;;;;;8.18;6.18;;;;;;;15.38;100.00;98385.34;2604478;28;20069;-93
2023/06/26 02:57:21;;;;;;;7.65;6.43;;;;;;;15.15;100.00;98382.97;2604542;28;20049;-93
2023/06/26 02:58:36;;;;;;;8.25;6.68;;;;;;;14.99;100.00;98378.41;2604772;28;20057;-93
2023/06/26 02:59:52;;;;;;;10.07;7.10;;;;;;;15.14;100.00;98386.53;2604938;28;20052;-93
2023/06/26 03:01:07;;;;;;;11.65;7.28;;;;;;;15.17;100.00;98387.25;2604412;28;20042;-92
2023/06/26 03:02:23;;;;;;;9.10;6.88;;;;;;;15.28;100.00;98384.09;2604756;28;20073;-93
2023/06/26 03:03:41;;;;;;;12.05;7.07;;;;;;;15.36;100.00;98389.81;2604850;28;20057;-92
2023/06/26 03:04:57;;;;;;;8.70;7.30;;;;;;;15.44;100.00;98389.47;2604794;28;20056;-93
2023/06/26 03:06:13;;;;;;;12.75;7.60;;;;;;;15.47;100.00;98393.72;2604529;28;20045;-92
2023/06/26 03:07:29;;;;;;;9.50;6.93;;;;;;;15.43;100.00;98386.91;2604569;28;20493;-92
2023/06/26 03:08:44;;;;;;;9.88;6.93;;;;;;;15.50;100.00;98385.66;2604661;28;20046;-93
2023/06/26 03:10:00;;;;;;;7.10;6.40;;;;;;;15.52;100.00;98383.81;2598338;28;20493;-92
2023/06/26 03:11:15;;;;;;;9.80;7.43;;;;;;;15.78;100.00;98387.78;2594320;28;20552;-92
2023/06/26 03:12:31;;;;;;;9.55;7.50;;;;;;;15.84;100.00;98385.75;2594549;28;20046;-93
2023/06/26 03:13:47;;;;;;;9.43;7.35;;;;;;;15.87;100.00;98383.00;2594520;28;20054;-92
2023/06/26 03:15:02;;;;;;;10.10;7.60;;;;;;;15.79;100.00;98380.75;2593932;28;20053;-93
2023/06/26 03:16:18;;;;;;;9.48;6.57;;;;;;;15.94;100.00;98382.63;2594213;28;20120;-93
2023/06/26 03:17:34;;;;;;;8.45;6.53;;;;;;;16.00;100.00;98375.31;2594512;28;20121;-92
2023/06/26 03:18:49;;;;;;;9.23;7.13;;;;;;;16.03;100.00;98383.06;2594132;28;20046;-93
2023/06/26 03:20:06;;;;;;;10.40;7.72;;;;;;;16.03;100.00;98376.03;2594340;28;20542;-93
2023/06/26 03:21:22;;;;;;;9.43;7.00;;;;;;;15.99;100.00;98377.09;2594113;28;20050;-93
2023/06/26 03:22:38;;;;;;;9.82;7.90;;;;;;;16.07;100.00;98376.72;2594270;28;20045;-93
2023/06/26 03:23:53;;;;;;;12.15;7.22;;;;;;;16.16;100.00;98375.38;2594579;28;20067;-92
2023/06/26 03:25:09;;;;;;;11.07;7.68;;;;;;;16.14;100.00;98377.25;2601063;28;20060;-92
2023/06/26 03:26:27;;;;;;;10.02;7.07;;;;;;;16.08;100.00;98378.44;2606022;28;20030;-93
2023/06/26 03:27:43;;;;;;;10.82;7.07;;;;;;;16.05;100.00;98373.28;2606154;28;20041;-91
2023/06/26 03:28:58;;;;;;;8.88;7.53;;;;;;;16.11;100.00;98375.63;2599806;28;20025;-93
2023/06/26 03:30:15;;;;;;;10.48;7.30;;;;;;;16.19;100.00;98378.69;2607098;28;20026;-92
2023/06/26 03:31:31;;;;;;;8.90;6.32;;;;;;;16.28;100.00;98374.75;2616513;28;20025;-93
2023/06/26 03:32:46;;;;;;;9.18;7.57;;;;;;;16.21;100.00;98373.34;2616365;28;20065;-90
2023/06/26 03:34:02;;;;;;;8.23;6.57;;;;;;;15.98;100.00;98374.53;2608885;28;20052;-93
2023/06/26 03:35:17;;;;;;;9.60;7.05;;;;;;;16.17;100.00;98375.28;2604308;28;20045;-92
2023/06/26 03:36:33;;;;;;;8.98;7.00;;;;;;;16.21;100.00;98373.34;2604362;28;20052;-92
2023/06/26 03:37:49;;;;;;;8.82;7.13;;;;;;;16.20;100.00;98369.88;2604470;28;20049;-92
2023/06/26 03:39:05;;;;;;;9.07;7.15;;;;;;;16.24;100.00;98375.81;2604398;28;20053;-92
2023/06/26 03:40:20;;;;;;;8.70;7.03;;;;;;;16.07;100.00;98374.09;2604383;28;20049;-92
2023/06/26 03:41:36;;;;;;;9.00;7.18;;;;;;;16.13;100.00;98371.13;2604799;28;20129;-92
2023/06/26 03:42:51;;;;;;;8.32;6.82;;;;;;;16.22;100.00;98373.28;2604703;28;20056;-92
2023/06/26 03:44:07;;;;;;;8.90;6.93;;;;;;;16.28;100.00;98368.59;2604370;28;20076;-92
2023/06/26 03:45:23;;;;;;;9.57;7.45;;;;;;;16.16;100.00;98370.94;2604444;28;20378;-92
2023/06/26 03:46:38;;;;;;;8.32;7.05;;;;;;;16.17;100.00;98369.16;2604853;28;20046;-93
2023/06/26 03:47:54;;;;;;;10.15;7.60;;;;;;;16.10;100.00;98368.63;2604730;28;20045;-93
2023/06/26 03:49:10;;;;;;;10.55;7.88;;;;;;;16.04;100.00;98371.56;2604704;28;20111;-93
2023/06/26 03:50:26;;;;;;;8.75;7.20;;;;;;;16.11;100.00;98372.97;2603690;28;20463;-93
2023/06/26 03:51:41;;;;;;;9.77;7.30;;;;;;;16.18;100.00;98368.22;2598172;28;20049;-92
2023/06/26 03:52:59;;;;;;;12.32;7.60;;;;;;;16.29;100.00;98373.81;2604022;28;20424;-92
2023/06/26 03:54:14;;;;;;;8.65;6.90;;;;;;;16.29;100.00;98375.59;2604030;28;20132;-94
2023/06/26 03:55:30;;;;;;;9.13;7.47;;;;;;;16.25;100.00;98374.88;2604007;28;20049;-92
2023/06/26 03:56:45;;;;;;;9.65;7.07;;;;;;;16.25;100.00;98369.59;2604016;28;20053;-93
2023/06/26 03:58:01;;;;;;;9.32;6.93;;;;;;;16.33;100.00;98375.34;2604127;28;20046;-94
2023/06/26 03:59:17;;;;;;;7.97;6.68;;;;;;;16.41;100.00;98377.59;2604283;28;20056;-93
2023/06/26 04:00:32;;;;;;;9.18;7.28;;;;;;;16.44;100.00;98366.84;2600631;28;20066;-93
2023/06/26 04:01:48;;;;;;;9.90;7.65;;;;;;;16.44;100.00;98377.41;2593591;28;20046;-93
2023/06/26 04:03:04;;;;;;;9.68;7.85;;;;;;;16.50;100.00;98368.31;2593979;28;20104;-93
2023/06/26 04:04:19;;;;;;;12.45;7.90;;;;;;;16.45;100.00;98365.91;2593942;28;20049;-93
2023/06/26 04:05:35;;;;;;;9.25;6.72;;;;;;;16.56;100.00;98369.78;2593810;28;20081;-92
2023/06/26 04:06:51;;;;;;;7.35;6.38;;;;;;;16.56;100.00;98361.84;2592932;28;20049;-92
2023/06/26 04:08:08;;;;;;;9.07;7.10;;;;;;;16.50;100.00;98363.03;2586905;28;20050;-92
2023/06/26 04:09:23;;;;;;;9.65;6.70;;;;;;;16.44;100.00;98366.84;2593315;28;20490;-93
2023/06/26 04:10:39;;;;;;;8.73;6.97;;;;;;;16.51;100.00;98365.59;2593649;28;20042;-93
2023/06/26 04:11:54;;;;;;;9.18;6.82;;;;;;;16.59;100.00;98367.81;2593677;28;20116;-94
2023/06/26 04:13:10;;;;;;;11.75;7.07;;;;;;;16.61;100.00;98371.22;2594024;28;20512;-93
2023/06/26 04:14:26;;;;;;;10.05;6.95;;;;;;;16.57;100.00;98369.69;2593577;28;20042;-93
2023/06/26 04:15:41;;;;;;;7.88;6.78;;;;;;;16.50;100.00;98369.19;2593759;28;20074;-93
2023/06/26 04:16:58;;;;;;;8.20;6.78;;;;;;;16.41;100.00;98368.78;2593843;28;20413;-93
2023/06/26 04:18:13;;;;;;;8.23;7.10;;;;;;;16.37;100.00;98370.75;2593531;28;20176;-92
2023/06/26 04:19:29;;;;;;;8.80;7.13;;;;;;;16.14;100.00;98366.69;2595826;28;20045;-91
2023/06/26 04:21:07;;;;;;;9.18;6.32;;;;;;;16.01;100.00;98364.69;2603634;28;20052;-91
2023/06/26 04:22:23;;;;;;;10.45;6.65;;;;;;;15.94;100.00;98368.56;2603420;28;20049;-91
2023/06/26 04:23:40;;;;;;;7.53;6.60;;;;;;;15.93;100.00;98366.84;2603510;28;20045;-92
2023/06/26 04:24:55;;;;;;;9.48;6.95;;;;;;;15.93;100.00;98369.50;2602751;28;20497;-91
2023/06/26 04:26:14;;;;;;;11.18;7.20;;;;;;;15.80;100.00;98369.25;2602844;28;20072;-91
2023/06/26 04:27:30;;;;;;;11.98;7.07;;;;;;;15.88;100.00;98374.13;2603516;28;20049;-91
2023/06/26 04:28:46;;;;;;;9.52;7.22;;;;;;;16.11;100.00;98367.69;2603702;28;20073;-93
2023/06/26 04:30:01;;;;;;;10.13;6.85;;;;;;;16.31;100.00;98365.78;2603676;28;20052;-92
2023/06/26 04:31:17;;;;;;;9.95;6.97;;;;;;;16.17;100.00;98366.53;2603671;28;20049;-92
2023/06/26 04:32:32;;;;;;;9.60;7.35;;;;;;;16.34;100.00;98373.53;2603575;28;20061;-92
2023/06/26 04:33:50;;;;;;;9.95;7.20;;;;;;;16.38;100.00;98373.31;2603267;28;20393;-93
2023/06/26 04:35:06;;;;;;;11.85;7.63;;;;;;;16.42;100.00;98371.38;2603607;28;20777;-92
2023/06/26 04:36:28;;;;;;;9.38;7.47;;;;;;;16.40;100.00;98367.09;2603387;28;20046;-92
2023/06/26 04:37:43;;;;;;;9.85;7.80;;;;;;;16.31;100.00;98369.31;2600713;28;20481;-92
2023/06/26 04:38:59;;;;;;;10.50;7.47;;;;;;;16.41;100.00;98364.38;2597880;28;20073;-91
2023/06/26 04:40:15;;;;;;;10.60;7.38;;;;;;;16.38;100.00;98369.84;2597940;28;20054;-92
2023/06/26 04:41:30;;;;;;;9.30;7.47;;;;;;;16.43;100.00;98369.59;2595391;28;20548;-92
2023/06/26 04:42:45;;;;;;;9.23;7.60;;;;;;;16.38;100.00;98375.94;2595175;28;20095;-92
2023/06/26 04:44:01;;;;;;;9.98;7.47;;;;;;;16.43;100.00;98366.94;2597449;28;20421;-92
2023/06/26 04:45:17;;;;;;;9.48;7.97;;;;;;;16.61;100.00;98365.09;2599873;28;20050;-92
2023/06/26 04:46:32;;;;;;;11.02;7.72;;;;;;;16.56;100.00;98367.13;2598196;28;20038;-91
2023/06/26 04:47:48;;;;;;;11.95;7.82;;;;;;;16.42;100.00;98362.59;2596992;28;20045;-91
2023/06/26 04:49:03;;;;;;;12.23;7.18;;;;;;;16.26;100.00;98366.03;2597197;28;20045;-91
2023/06/26 04:50:19;;;;;;;11.50;7.55;;;;;;;16.19;100.00;98365.50;2598578;28;20046;-92
2023/06/26 04:51:40;;;;;;;9.45;8.23;;;;;;;16.33;100.00;98364.78;2599299;28;20075;-92
2023/06/26 04:52:56;;;;;;;9.75;7.78;;;;;;;16.51;100.00;98362.97;2595810;28;20084;-93
2023/06/26 04:54:11;;;;;;;9.05;7.28;;;;;;;16.66;100.00;98365.72;2596664;28;20079;-92
2023/06/26 04:55:28;;;;;;;11.02;7.47;;;;;;;16.52;100.00;98364.66;2600813;28;20046;-91
2023/06/26 04:56:43;;;;;;;12.35;6.97;;;;;;;16.65;100.00;98361.34;2599129;28;20499;-92
2023/06/26 04:57:59;;;;;;;11.93;7.45;;;;;;;16.67;100.00;98360.31;2598150;28;20067;-92
2023/06/26 04:59:15;;;;;;;8.90;7.13;;;;;;;16.65;100.00;98367.47;2596386;28;20256;-92
2023/06/26 05:00:31;;;;;;;10.27;7.13;;;;;;;16.76;100.00;98360.75;2596366;28;20044;-92
2023/06/26 05:01:47;;;;;;;10.18;7.68;;;;;;;16.84;100.00;98360.34;2597574;28;20077;-92
2023/06/26 05:03:03;;;;;;;10.50;7.13;;;;;;;16.92;100.00;98361.63;2596317;28;20413;-92
2023/06/26 05:04:19;;;;;;;11.30;7.78;;;;;;;16.90;100.00;98365.28;2597346;28;20042;-92
2023/06/26 05:05:35;;;;;;;9.48;6.90;;;;;;;16.95;100.00;98364.09;2598671;28;20042;-92
2023/06/26 05:06:50;;;;;;;11.32;7.28;;;;;;;16.78;100.00;98357.09;2595674;28;20497;-92
2023/06/26 05:08:17;;;;;;;13.40;7.57;;;;;;;16.67;100.00;98355.03;2598160;28;20046;-91
2023/06/26 05:09:32;;;;;;;14.23;8.40;;;;;;;16.70;100.00;98364.59;2593962;28;20045;-92
2023/06/26 05:10:48;;;;;;;10.95;6.97;;;;;;;16.79;100.00;98360.59;2597500;28;20414;-91
2023/06/26 05:12:04;;;;;;;10.15;7.22;;;;;;;16.93;100.00;98360.69;2597726;28;20080;-92
2023/06/26 05:13:20;;;;;;;9.70;7.57;;;;;;;16.98;100.00;98356.94;2595066;28;20057;-91
2023/06/26 05:14:35;;;;;;;8.43;6.90;;;;;;;16.98;100.00;98365.72;2598303;28;20038;-91
2023/06/26 05:15:52;;;;;;;9.48;7.32;;;;;;;16.92;100.00;98353.69;2596607;28;20045;-92
2023/06/26 05:17:07;;;;;;;10.35;7.18;;;;;;;17.04;100.00;98357.50;2603347;28;20049;-91
2023/06/26 05:18:23;;;;;;;9.18;7.45;;;;;;;17.12;100.00;98358.84;2602489;28;20501;-92
2023/06/26 05:19:38;;;;;;;9.48;7.25;;;;;;;17.10;100.00;98356.25;2602613;28;20477;-92
2023/06/26 05:20:54;;;;;;;11.05;7.80;;;;;;;17.19;100.00;98358.41;2603031;28;20492;-91
2023/06/26 05:22:12;;;;;;;9.40;7.10;;;;;;;17.33;100.00;98351.47;2603248;28;20051;-92
2023/06/26 05:23:30;;;;;;;9.90;7.75;;;;;;;17.32;100.00;98355.06;2603347;28;20517;-92
2023/06/26 05:24:47;;;;;;;9.70;7.15;;;;;;;17.39;100.00;98352.91;2603245;28;20053;-90
2023/06/26 05:26:03;;;;;;;9.93;7.78;;;;;;;17.26;100.00;98355.44;2603261;28;20045;-92
2023/06/26 05:27:21;;;;;;;10.10;7.25;;;;;;;17.21;100.00;98350.38;2603146;28;20555;-92
2023/06/26 05:28:37;;;;;;;11.25;7.47;;;;;;;17.24;100.00;98352.84;2602960;28;20061;-91
2023/06/26 05:29:53;;;;;;;11.25;7.28;;;;;;;17.15;100.00;98348.06;2598055;28;20492;-90
2023/06/26 05:31:09;;;;;;;9.57;7.80;;;;;;;17.33;100.00;98354.97;2592563;28;20056;-91
2023/06/26 05:32:25;;;;;;;10.82;7.35;;;;;;;17.42;100.00;98348.31;2593884;28;20506;-91
2023/06/26 05:33:43;;;;;;;9.85;7.10;;;;;;;17.38;100.00;98349.41;2603115;28;20045;-92
2023/06/26 05:35:01;;;;;;;9.40;7.50;;;;;;;17.54;100.00;98348.53;2602825;28;20444;-92
2023/06/26 05:36:18;;;;;;;9.43;7.13;;;;;;;17.50;100.00;98353.16;2602870;28;20053;-91
2023/06/26 05:37:34;;;;;;;11.27;7.75;;;;;;;17.74;100.00;98356.16;2603267;28;20042;-91
2023/06/26 05:38:50;;;;;;;8.70;7.40;;;;;;;17.61;100.00;98349.88;2603214;28;20049;-92
2023/06/26 05:40:07;;;;;;;8.73;7.50;;;;;;;17.65;100.00;98351.38;2603171;28;20119;-92
2023/06/26 05:41:23;;;;;;;12.93;7.40;;;;;;;17.75;100.00;98352.56;2603262;28;20041;-92
2023/06/26 05:42:38;;;;;;;11.23;7.28;;;;;;;17.86;100.00;98353.72;2603218;28;20382;-93
2023/06/26 05:43:54;;;;;;;9.63;8.20;;;;;;;17.79;100.00;98353.25;2602912;28;20055;-91
2023/06/26 05:45:10;;;;;;;8.88;7.22;;;;;;;17.85;100.00;98358.16;2602561;28;20037;-88
2023/06/26 05:46:26;;;;;;;9.13;7.15;;;;;;;17.56;100.00;98363.38;2602223;28;20045;-92
2023/06/26 05:47:42;;;;;;;9.73;7.05;;;;;;;17.49;100.00;98356.75;2603175;28;20665;-91
2023/06/26 05:48:58;;;;;;;10.75;7.80;;;;;;;17.69;100.00;98357.38;2602547;28;20049;-81
2023/06/26 05:50:14;;;;;;;10.52;7.70;;;;;;;17.80;100.00;98352.28;2602140;28;20041;-86
2023/06/26 05:51:30;;;;;;;8.88;7.82;;;;;;;17.94;100.00;98351.44;2602193;28;20107;-89
2023/06/26 05:52:45;;;;;;;8.82;7.13;;;;;;;18.09;100.00;98349.72;2602230;28;20045;-89
2023/06/26 05:54:01;;;;;;;11.07;8.25;;;;;;;18.15;100.00;98338.75;2602041;28;20049;-89
2023/06/26 05:55:17;;;;;;;10.95;7.72;;;;;;;18.10;100.00;98343.47;2602082;28;20057;-89
2023/06/26 05:56:33;;;;;;;9.82;7.70;;;;;;;18.16;100.00;98343.13;2602048;28;20507;-88